createdAt,value
2018-12-11T00:00:26.007Z,76.20
2018-12-11T00:03:09.782Z,75.70
2018-12-11T00:05:52.926Z,75.50
2018-12-11T00:08:34.064Z,76.00
2018-12-11T00:11:08.432Z,75.70
2018-12-11T00:13:50.270Z,76.40
2018-12-11T00:16:31.483Z,76.40
2018-12-11T00:19:01.756Z,75.50
2018-12-11T00:21:43.338Z,76.60
2018-12-11T00:24:25.745Z,76.60
2018-12-11T00:27:07.440Z,77.30
2018-12-11T00:29:46.563Z,77.20
2018-12-11T00:32:18.954Z,77.00
2018-12-11T00:34:49.095Z,76.90
2018-12-11T00:39:56.919Z,76.00
2018-12-11T00:42:38.462Z,76.40
2018-12-11T00:45:10.961Z,77.30
2018-12-11T00:47:52.448Z,77.30
2018-12-11T00:50:22.138Z,77.30
2018-12-11T00:53:03.721Z,77.90
2018-12-11T00:55:36.102Z,78.00
2018-12-11T00:58:05.844Z,78.10
2018-12-11T01:00:40.658Z,78.00
2018-12-11T01:03:10.711Z,78.30
2018-12-11T01:05:40.780Z,78.60
2018-12-11T01:08:15.880Z,78.80
2018-12-11T01:10:57.262Z,79.00
2018-12-11T01:13:38.268Z,79.30
2018-12-11T01:16:20.126Z,79.40
2018-12-11T01:19:02.063Z,79.40
2018-12-11T01:21:43.118Z,79.40
2018-12-11T01:24:24.118Z,79.10
2018-12-11T01:26:58.427Z,79.50
2018-12-11T01:29:33.325Z,79.10
2018-12-11T01:32:15.126Z,79.60
2018-12-11T01:34:53.495Z,79.80
2018-12-11T01:37:22.923Z,80.00
2018-12-11T01:39:55.126Z,79.60
2018-12-11T01:42:27.291Z,79.90
2018-12-11T01:44:59.194Z,79.60
2018-12-11T01:47:40.558Z,79.50
2018-12-11T01:50:13.058Z,79.60
2018-12-11T01:52:51.634Z,79.60
2018-12-11T01:55:33.404Z,79.30
2018-12-11T01:58:19.330Z,79.60
2018-12-11T02:01:00.456Z,79.70
2018-12-11T02:03:41.538Z,79.50
2018-12-11T02:06:23.487Z,79.30
2018-12-11T02:08:55.107Z,79.30
2018-12-11T02:11:36.592Z,79.00
2018-12-11T02:14:17.706Z,79.10
2018-12-11T02:16:59.764Z,79.50
2018-12-11T02:19:32.207Z,79.50
2018-12-11T02:22:13.972Z,79.40
2018-12-11T02:24:55.928Z,79.10
2018-12-11T02:27:36.998Z,79.50
2018-12-11T02:30:08.647Z,79.50
2018-12-11T02:32:50.228Z,79.10
2018-12-11T02:35:32.798Z,79.10
2018-12-11T02:38:02.799Z,79.20
2018-12-11T02:40:34.661Z,79.20
2018-12-11T02:43:16.309Z,79.50
2018-12-11T02:45:57.243Z,79.30
2018-12-11T02:48:31.592Z,79.00
2018-12-11T02:51:13.164Z,79.30
2018-12-11T02:53:54.195Z,79.00
2018-12-11T02:56:24.548Z,79.30
2018-12-11T02:58:59.703Z,79.30
2018-12-11T03:01:41.326Z,79.80
2018-12-11T03:04:22.631Z,80.40
2018-12-11T03:06:59.906Z,80.50
2018-12-11T03:09:29.994Z,80.70
2018-12-11T03:12:11.280Z,80.90
2018-12-11T03:14:52.493Z,80.80
2018-12-11T03:17:34.543Z,81.20
2018-12-11T03:20:07.114Z,80.80
2018-12-11T03:22:48.491Z,80.90
2018-12-11T03:25:29.640Z,80.90
2018-12-11T03:28:11.566Z,81.30
2018-12-11T03:30:43.202Z,81.20
2018-12-11T03:33:24.830Z,81.30
2018-12-11T03:36:06.048Z,81.20
2018-12-11T03:38:37.776Z,81.50
2018-12-11T03:41:19.579Z,82.00
2018-12-11T03:44:01.231Z,82.50
2018-12-11T03:46:42.375Z,82.20
2018-12-11T03:49:13.952Z,82.00
2018-12-11T03:51:43.897Z,81.70
2018-12-11T03:54:18.606Z,81.70
2018-12-11T03:56:57.756Z,82.00
2018-12-11T03:59:32.753Z,82.00
2018-12-11T04:02:14.314Z,82.10
2018-12-11T04:04:51.410Z,81.80
2018-12-11T04:07:33.377Z,81.30
2018-12-11T04:10:07.296Z,81.00
2018-12-11T04:12:52.520Z,81.10
2018-12-11T04:15:25.766Z,80.80
2018-12-11T04:18:07.734Z,81.30
2018-12-11T04:20:42.902Z,81.20
2018-12-11T04:23:20.071Z,81.30
2018-12-11T04:26:01.651Z,80.60
2018-12-11T04:28:33.388Z,81.00
2018-12-11T04:31:14.619Z,81.20
2018-12-11T04:33:55.795Z,80.70
2018-12-11T04:36:34.288Z,81.30
2018-12-11T04:39:06.526Z,81.00
2018-12-11T04:41:52.765Z,80.90
2018-12-11T04:44:34.755Z,80.90
2018-12-11T04:47:09.854Z,81.10
2018-12-11T04:49:42.274Z,81.60
2018-12-11T04:52:23.535Z,80.80
2018-12-11T04:55:05.483Z,80.70
2018-12-11T04:57:46.481Z,80.20
2018-12-11T05:00:31.738Z,80.20
2018-12-11T05:03:12.818Z,80.40
2018-12-11T05:05:54.034Z,80.10
2018-12-11T05:08:35.918Z,80.60
2018-12-11T05:11:10.364Z,80.50
2018-12-11T05:13:52.147Z,81.10
2018-12-11T05:16:34.090Z,81.20
2018-12-11T05:19:15.883Z,81.80
2018-12-11T05:21:57.022Z,82.20
2018-12-11T05:24:34.163Z,82.60
2018-12-11T05:27:11.182Z,82.70
2018-12-11T05:29:43.320Z,83.10
2018-12-11T05:32:18.226Z,83.20
2018-12-11T05:38:01.196Z,82.00
2018-12-11T05:40:33.538Z,82.00
2018-12-11T05:43:24.448Z,81.70
2018-12-11T05:45:54.372Z,81.70
2018-12-11T05:48:24.262Z,81.60
2018-12-11T05:50:59.898Z,82.10
2018-12-11T05:53:30.097Z,82.40
2018-12-11T05:56:11.251Z,82.30
2018-12-11T05:58:43.226Z,82.60
2018-12-11T06:01:13.875Z,83.20
2018-12-11T06:03:55.710Z,83.20
2018-12-11T06:06:44.120Z,83.30
2018-12-11T06:09:14.181Z,83.50
2018-12-11T06:11:55.746Z,84.10
2018-12-11T06:14:30.795Z,84.10
2018-12-11T06:17:12.904Z,84.60
2018-12-11T06:19:45.414Z,84.20
2018-12-11T06:22:26.939Z,83.70
2018-12-11T06:25:08.943Z,83.20
2018-12-11T06:27:44.133Z,83.30
2018-12-11T06:30:16.351Z,83.20
2018-12-11T06:32:57.814Z,82.90
2018-12-11T06:35:32.312Z,82.50
2018-12-11T06:38:13.871Z,82.80
2018-12-11T06:40:50.114Z,82.60
2018-12-11T06:43:31.766Z,82.50
2018-12-11T06:46:02.159Z,82.70
2018-12-11T06:48:34.126Z,83.10
2018-12-11T06:51:15.755Z,83.60
2018-12-11T06:54:01.599Z,83.60
2018-12-11T06:56:31.289Z,83.50
2018-12-11T06:59:05.974Z,82.70
2018-12-11T07:01:47.585Z,82.80
2018-12-11T07:04:18.074Z,83.20
2018-12-11T07:06:59.522Z,83.70
2018-12-11T07:09:31.042Z,82.90
2018-12-11T07:12:06.103Z,83.10
2018-12-11T07:14:47.945Z,82.90
2018-12-11T07:17:29.876Z,83.50
2018-12-11T07:20:04.900Z,83.50
2018-12-11T07:22:37.491Z,82.70
2018-12-11T07:25:11.886Z,83.30
2018-12-11T07:27:48.088Z,83.00
2018-12-11T07:30:18.387Z,82.60
2018-12-11T07:32:59.843Z,82.70
2018-12-11T07:35:40.895Z,82.70
2018-12-11T07:38:21.889Z,82.80
2018-12-11T07:40:58.984Z,82.70
2018-12-11T07:43:31.362Z,83.10
2018-12-11T07:46:03.548Z,82.70
2018-12-11T07:48:44.974Z,83.00
2018-12-11T07:51:20.242Z,83.10
2018-12-11T07:54:03.247Z,83.40
2018-12-11T07:56:42.283Z,83.80
2018-12-11T07:59:14.473Z,83.80
2018-12-11T08:01:55.802Z,83.20
2018-12-11T08:04:30.318Z,83.50
2018-12-11T08:07:11.810Z,83.70
2018-12-11T08:09:43.407Z,83.70
2018-12-11T08:12:15.458Z,83.20
2018-12-11T08:14:57.095Z,83.30
2018-12-11T08:17:38.967Z,82.90
2018-12-11T08:20:14.235Z,83.00
2018-12-11T08:22:49.425Z,83.00
2018-12-11T08:25:31.231Z,82.60
2018-12-11T08:28:06.322Z,82.60
2018-12-11T08:30:38.826Z,80.90
2018-12-11T08:33:20.107Z,79.70
2018-12-11T08:35:55.298Z,79.90
2018-12-11T08:38:36.970Z,79.70
2018-12-11T08:41:19.242Z,77.20
2018-12-11T08:44:01.036Z,78.90
2018-12-11T08:46:33.922Z,79.60
2018-12-11T08:49:06.004Z,79.00
2018-12-11T08:51:36.009Z,79.10
2018-12-11T08:54:10.849Z,78.50
2018-12-11T08:56:45.807Z,77.30
2018-12-11T08:59:18.011Z,78.40
2018-12-11T09:01:50.181Z,78.30
2018-12-11T09:04:21.826Z,77.90
2018-12-11T09:07:03.169Z,77.70
2018-12-11T09:09:34.875Z,76.90
2018-12-11T09:12:16.624Z,76.90
2018-12-11T09:14:51.095Z,77.00
2018-12-11T09:17:32.741Z,76.70
2018-12-11T09:20:05.136Z,76.40
2018-12-11T09:22:46.646Z,75.20
2018-12-11T09:25:21.825Z,75.20
2018-12-11T09:27:56.880Z,74.30
2018-12-11T09:30:29.559Z,72.80
2018-12-11T09:33:05.931Z,73.60
2018-12-11T09:35:38.939Z,72.20
2018-12-11T09:38:14.150Z,71.60
2018-12-11T09:40:46.176Z,72.40
2018-12-11T09:43:15.963Z,72.50
2018-12-11T09:45:57.454Z,72.40
2018-12-11T09:48:38.482Z,70.70
2018-12-11T09:51:17.836Z,71.60
2018-12-11T09:53:55.160Z,71.60
2018-12-11T09:56:27.751Z,71.60
2018-12-11T09:59:02.679Z,71.00
2018-12-11T10:01:32.659Z,69.70
2018-12-11T10:04:08.556Z,69.80
2018-12-11T10:06:40.415Z,68.40
2018-12-11T10:09:12.643Z,69.10
2018-12-11T10:11:44.753Z,69.90
2018-12-11T10:14:23.458Z,68.20
2018-12-11T10:16:53.913Z,68.10
2018-12-11T10:19:25.861Z,68.30
2018-12-11T10:22:07.399Z,69.30
2018-12-11T10:24:49.346Z,69.30
2018-12-11T10:35:06.871Z,68.90
2018-12-11T10:37:48.331Z,70.00
2018-12-11T10:50:46.234Z,70.80
2018-12-11T10:53:27.630Z,71.10
2018-12-11T10:56:08.866Z,70.60
2018-12-11T10:58:50.551Z,70.70
2018-12-11T11:01:22.207Z,70.90
2018-12-11T11:03:56.594Z,71.40
2018-12-11T11:06:27.098Z,71.40
2018-12-11T11:08:58.882Z,70.20
2018-12-11T11:11:41.936Z,69.50
2018-12-11T11:14:14.229Z,68.80
2018-12-11T11:16:44.314Z,70.30
2018-12-11T11:19:16.311Z,70.50
2018-12-11T11:21:57.990Z,69.50
2018-12-11T11:24:39.898Z,68.60
2018-12-11T11:27:21.035Z,68.20
2018-12-11T11:29:56.170Z,69.80
2018-12-11T11:32:31.119Z,69.00
2018-12-11T11:35:06.204Z,69.30
2018-12-11T11:37:42.548Z,68.30
2018-12-11T11:40:15.024Z,68.60
2018-12-11T11:42:56.511Z,68.30
2018-12-11T11:45:38.327Z,68.20
2018-12-11T11:51:09.722Z,68.20
2018-12-11T11:53:51.202Z,67.50
2018-12-11T11:56:33.134Z,66.70
2018-12-11T11:59:05.620Z,67.10
2018-12-11T12:01:47.228Z,67.20
2018-12-11T12:04:29.099Z,65.90
2018-12-11T12:17:21.815Z,67.80
2018-12-11T12:19:56.124Z,68.30
2018-12-11T12:22:37.761Z,67.20
2018-12-11T12:25:12.978Z,68.30
2018-12-11T12:27:48.452Z,69.20
2018-12-11T12:30:23.260Z,68.30
2018-12-11T12:32:55.507Z,66.90
2018-12-11T12:35:36.903Z,66.90
2018-12-11T12:38:07.438Z,67.80
2018-12-11T12:40:39.558Z,68.10
2018-12-11T12:43:25.162Z,67.50
2018-12-11T12:46:07.089Z,68.20
2018-12-11T12:48:48.127Z,67.10
2018-12-11T12:51:23.515Z,67.00
2018-12-11T12:53:58.967Z,66.80
2018-12-11T12:56:40.873Z,66.70
2018-12-11T12:59:18.204Z,67.30
2018-12-11T13:01:50.603Z,67.70
2018-12-11T13:04:25.286Z,67.10
2018-12-11T13:07:06.883Z,65.70
2018-12-11T13:09:39.378Z,65.80
2018-12-11T13:12:28.639Z,66.50
2018-12-11T13:15:09.969Z,66.70
2018-12-11T13:17:51.146Z,66.10
2018-12-11T13:20:23.507Z,64.00
2018-12-11T13:23:05.045Z,64.00
2018-12-11T13:25:46.929Z,63.70
2018-12-11T13:28:27.930Z,63.90
2018-12-11T13:31:06.414Z,62.70
2018-12-11T13:36:36.359Z,60.70
2018-12-11T13:39:17.807Z,61.90
2018-12-11T13:41:48.214Z,59.80
2018-12-11T13:44:20.348Z,60.70
2018-12-11T13:46:50.549Z,61.30
2018-12-11T13:49:23.118Z,61.80
2018-12-11T13:51:58.204Z,62.50
2018-12-11T13:54:39.892Z,62.20
2018-12-11T13:57:21.798Z,62.70
2018-12-11T13:59:53.478Z,63.40
2018-12-11T14:02:25.580Z,63.10
2018-12-11T14:05:06.897Z,63.50
2018-12-11T14:07:48.042Z,62.70
2018-12-11T14:10:19.679Z,63.00
2018-12-11T14:13:03.212Z,62.90
2018-12-11T14:15:44.374Z,63.90
2018-12-11T14:18:14.948Z,64.40
2018-12-11T14:20:47.063Z,64.00
2018-12-11T14:23:28.755Z,64.30
2018-12-11T14:26:03.105Z,64.90
2018-12-11T14:28:38.058Z,65.00
2018-12-11T14:31:16.983Z,65.10
2018-12-11T14:33:56.163Z,65.10
2018-12-11T14:36:37.583Z,65.20
2018-12-11T14:39:12.921Z,65.60
2018-12-11T14:41:54.893Z,64.90
2018-12-11T14:44:34.946Z,64.50
2018-12-11T14:47:07.280Z,64.30
2018-12-11T14:49:39.495Z,65.50
2018-12-11T14:52:20.874Z,65.10
2018-12-11T14:55:02.852Z,65.20
2018-12-11T14:57:38.316Z,65.40
2018-12-11T15:00:13.150Z,65.50
2018-12-11T15:02:45.684Z,65.60
2018-12-11T15:05:32.805Z,64.90
2018-12-11T15:08:25.131Z,65.10
2018-12-11T15:11:00.303Z,66.20
2018-12-11T15:13:41.612Z,65.00
2018-12-11T15:16:17.039Z,65.80
2018-12-11T15:18:50.225Z,66.10
2018-12-11T15:21:27.482Z,66.30
2018-12-11T15:23:58.057Z,67.40
2018-12-11T15:26:32.755Z,67.50
2018-12-11T15:29:04.892Z,67.40
2018-12-11T15:31:39.990Z,68.50
2018-12-11T15:34:21.201Z,68.80
2018-12-11T15:37:02.567Z,68.60
2018-12-11T15:39:35.989Z,68.80
2018-12-11T15:42:06.688Z,69.20
2018-12-11T15:44:48.247Z,68.30
2018-12-11T15:47:30.227Z,69.20
2018-12-11T15:50:06.219Z,69.20
2018-12-11T15:52:47.266Z,70.60
2018-12-11T15:57:34.315Z,72.40
2018-12-11T16:00:23.318Z,73.00
2018-12-11T16:02:58.944Z,73.40
2018-12-11T16:05:36.023Z,73.20
2018-12-11T16:08:13.015Z,74.10
2018-12-11T16:10:49.178Z,75.40
2018-12-11T16:13:28.297Z,76.10
2018-12-11T16:16:04.968Z,77.50
2018-12-11T16:18:40.936Z,77.40
2018-12-11T16:21:16.792Z,77.80
2018-12-11T16:23:53.593Z,78.50
2018-12-11T16:26:28.808Z,77.90
2018-12-11T16:29:03.639Z,77.00
2018-12-11T16:31:48.369Z,77.30
2018-12-11T16:34:25.439Z,77.90
2018-12-11T16:37:02.609Z,78.90
2018-12-11T16:39:44.920Z,79.30
2018-12-11T16:42:37.495Z,79.80
2018-12-11T16:48:27.977Z,80.00
2018-12-11T17:00:19.370Z,79.90
2018-12-11T17:02:54.843Z,80.60
2018-12-11T17:05:33.426Z,80.20
2018-12-11T17:08:08.054Z,81.00
2018-12-11T17:10:44.188Z,80.80
2018-12-11T17:13:20.227Z,80.70
2018-12-11T17:15:52.608Z,80.80
2018-12-11T17:18:28.054Z,80.90
2018-12-11T17:21:04.493Z,80.50
2018-12-11T17:23:39.991Z,80.30
2018-12-11T17:26:16.054Z,80.60
2018-12-11T17:28:51.086Z,80.10
2018-12-11T17:31:27.982Z,80.20
2018-12-11T17:34:04.063Z,80.20
2018-12-11T17:36:40.261Z,80.20
2018-12-11T17:42:28.138Z,81.30
2018-12-11T17:45:05.219Z,81.80
2018-12-11T17:50:45.131Z,81.80
2018-12-11T17:53:20.283Z,81.90
2018-12-11T17:55:55.000Z,82.00
2018-12-11T17:58:30.740Z,81.60
2018-12-11T18:01:08.402Z,81.50
2018-12-11T18:03:44.531Z,81.10
2018-12-11T18:06:20.796Z,80.50
2018-12-11T18:12:04.265Z,80.80
2018-12-11T18:14:40.224Z,81.00
2018-12-11T18:17:17.358Z,80.10
2018-12-11T18:19:53.213Z,80.90
2018-12-11T18:22:29.137Z,80.10
2018-12-11T18:25:05.002Z,79.90
2018-12-11T18:27:41.879Z,79.80
2018-12-11T18:30:17.678Z,79.70
2018-12-11T18:33:00.389Z,79.60
2018-12-11T18:41:47.395Z,80.40
2018-12-11T18:44:23.399Z,80.90
2018-12-11T18:47:00.809Z,81.60
2018-12-11T18:49:37.153Z,81.70
2018-12-11T18:52:15.940Z,81.80
2018-12-11T18:57:56.031Z,82.70
2018-12-11T19:00:31.977Z,82.80
2018-12-11T19:03:07.114Z,83.00
2018-12-11T19:05:43.781Z,82.20
2018-12-11T19:08:20.779Z,82.50
2018-12-11T19:11:03.302Z,82.10
2018-12-11T19:53:28.266Z,80.20
2018-12-11T19:56:09.739Z,80.00
2018-12-11T19:58:41.546Z,80.20
2018-12-11T20:01:22.950Z,80.90
2018-12-11T20:04:05.478Z,81.40
2018-12-11T20:06:46.944Z,82.40
2018-12-11T20:09:28.224Z,83.70
2018-12-11T20:12:09.935Z,84.20
2018-12-11T20:14:56.731Z,84.70
2018-12-11T20:17:29.723Z,84.40
2018-12-11T20:20:11.379Z,84.70
2018-12-11T20:22:53.187Z,84.70
2018-12-11T20:25:34.342Z,84.70
2018-12-11T20:28:15.342Z,84.10
2018-12-11T20:30:50.623Z,84.60
2018-12-11T20:33:32.814Z,85.20
2018-12-11T20:36:07.028Z,85.90
2018-12-11T20:38:39.828Z,86.40
2018-12-11T20:41:25.717Z,86.40
2018-12-11T20:44:00.994Z,86.40
2018-12-11T20:46:42.716Z,86.30
2018-12-11T20:49:14.399Z,86.10
2018-12-11T20:51:55.810Z,86.00
2018-12-11T20:57:44.946Z,86.00
2018-12-11T21:00:23.946Z,86.10
2018-12-11T21:02:59.974Z,86.10
2018-12-11T21:05:41.347Z,86.10
2018-12-11T21:08:22.389Z,85.90
2018-12-11T21:11:04.349Z,86.00
2018-12-11T21:13:38.703Z,85.60
2018-12-11T21:16:20.200Z,85.70
2018-12-11T21:18:51.062Z,86.00
2018-12-11T21:21:33.587Z,85.80
2018-12-11T21:24:03.786Z,85.70
2018-12-11T21:26:38.288Z,85.60
2018-12-11T21:29:08.990Z,86.00
2018-12-11T21:31:47.478Z,86.20
2018-12-11T21:34:29.033Z,86.20
2018-12-11T21:37:09.987Z,86.00
2018-12-11T21:39:45.698Z,85.20
2018-12-11T21:42:26.991Z,85.90
2018-12-11T21:45:04.535Z,85.80
2018-12-11T21:47:39.245Z,86.10
2018-12-11T21:50:09.707Z,85.80
2018-12-11T21:52:46.439Z,85.70
2018-12-11T21:55:19.635Z,85.20
2018-12-11T21:58:01.646Z,85.60
2018-12-11T22:00:34.063Z,85.50
2018-12-11T22:03:09.346Z,85.40
2018-12-11T22:05:44.501Z,85.00
2018-12-11T22:08:21.286Z,85.50
2018-12-11T22:11:03.037Z,85.80
2018-12-11T22:13:44.827Z,85.50
2018-12-11T22:16:34.762Z,85.70
2018-12-11T22:19:06.402Z,85.60
2018-12-11T22:21:45.238Z,86.00
2018-12-11T22:24:26.578Z,85.50
2018-12-11T22:27:00.965Z,86.00
2018-12-11T22:29:33.295Z,86.10
2018-12-11T22:32:07.958Z,86.30
2018-12-11T22:34:43.127Z,86.40
2018-12-11T22:37:15.804Z,86.80
2018-12-11T22:39:47.854Z,86.90
2018-12-11T22:42:22.737Z,86.80
2018-12-11T22:45:01.771Z,86.50
2018-12-11T22:47:34.411Z,87.00
2018-12-11T22:50:09.170Z,87.30
2018-12-11T22:52:50.926Z,86.90
2018-12-11T22:55:26.038Z,87.10
2018-12-11T22:58:11.994Z,87.10
2018-12-11T23:00:50.579Z,87.20
2018-12-11T23:03:34.506Z,87.30
2018-12-11T23:06:16.245Z,87.20
2018-12-11T23:08:51.503Z,87.10
2018-12-11T23:11:33.471Z,86.50
2018-12-11T23:14:12.368Z,86.60
2018-12-11T23:16:48.246Z,86.50
2018-12-11T23:19:23.355Z,86.60
2018-12-11T23:22:04.928Z,86.60
2018-12-11T23:24:46.967Z,86.80
2018-12-11T23:27:29.662Z,86.70
2018-12-11T23:30:01.395Z,86.70
2018-12-11T23:32:45.111Z,87.10
2018-12-11T23:35:20.856Z,86.80
2018-12-11T23:38:02.022Z,87.20
2018-12-11T23:40:37.419Z,87.20
2018-12-11T23:43:18.675Z,87.00
2018-12-11T23:46:03.322Z,87.30
2018-12-11T23:51:36.620Z,87.40
2018-12-11T23:54:23.329Z,87.40
2018-12-11T23:56:59.198Z,87.30
2018-12-11T23:59:35.769Z,87.60
